createdAt,value
2022-11-29T00:01:31.602Z,19.60
2022-11-29T00:03:59.301Z,19.70
2022-11-29T00:06:31.536Z,19.60
2022-11-29T00:09:01.096Z,19.60
2022-11-29T00:11:49.340Z,19.60
2022-11-29T00:14:18.159Z,19.60
2022-11-29T00:16:45.524Z,19.60
2022-11-29T00:19:13.709Z,19.60
2022-11-29T00:21:40.512Z,19.60
2022-11-29T00:24:07.503Z,19.60
2022-11-29T00:26:34.292Z,19.60
2022-11-29T00:29:01.125Z,19.60
2022-11-29T00:31:30.512Z,19.60
2022-11-29T00:33:58.853Z,19.60
2022-11-29T00:36:26.021Z,19.60
2022-11-29T00:38:53.080Z,19.60
2022-11-29T00:41:20.041Z,19.60
2022-11-29T00:43:46.936Z,19.60
2022-11-29T00:46:13.849Z,19.60
2022-11-29T00:48:40.872Z,19.60
2022-11-29T00:51:07.845Z,19.60
2022-11-29T00:53:36.039Z,19.60
2022-11-29T00:56:03.814Z,19.60
2022-11-29T00:58:30.923Z,19.60
2022-11-29T01:00:57.822Z,19.60
2022-11-29T01:03:24.955Z,19.60
2022-11-29T01:05:51.842Z,19.60
2022-11-29T01:08:18.875Z,19.50
2022-11-29T01:10:45.773Z,19.60
2022-11-29T01:13:12.716Z,19.50
2022-11-29T01:15:39.584Z,19.50
2022-11-29T01:18:06.392Z,19.50
2022-11-29T01:20:33.222Z,19.50
2022-11-29T01:22:59.993Z,19.50
2022-11-29T01:25:27.162Z,19.50
2022-11-29T01:27:54.743Z,19.50
2022-11-29T01:30:21.509Z,19.50
2022-11-29T01:32:48.351Z,19.50
2022-11-29T01:35:15.117Z,19.50
2022-11-29T01:37:41.921Z,19.50
2022-11-29T01:40:09.032Z,19.50
2022-11-29T01:42:35.826Z,19.50
2022-11-29T01:45:06.309Z,19.50
2022-11-29T01:47:33.788Z,19.50
2022-11-29T01:50:02.798Z,19.50
2022-11-29T01:52:32.823Z,19.50
2022-11-29T01:55:04.055Z,19.50
2022-11-29T01:57:33.218Z,19.50
2022-11-29T02:00:08.670Z,19.50
2022-11-29T02:02:44.934Z,19.50
2022-11-29T02:05:14.817Z,19.50
2022-11-29T02:07:46.148Z,19.50
2022-11-29T02:10:14.604Z,19.50
2022-11-29T02:13:15.280Z,19.40
2022-11-29T02:16:11.342Z,19.50
2022-11-29T02:18:43.856Z,19.50
2022-11-29T02:21:23.242Z,19.40
2022-11-29T02:24:01.863Z,19.50
2022-11-29T02:26:52.573Z,19.40
2022-11-29T02:29:47.574Z,19.50
2022-11-29T02:32:51.849Z,19.40
2022-11-29T02:35:43.937Z,19.40
2022-11-29T02:38:55.591Z,19.40
2022-11-29T02:41:31.257Z,19.40
2022-11-29T02:44:12.812Z,19.40
2022-11-29T02:47:10.829Z,19.50
2022-11-29T02:50:33.605Z,19.40
2022-11-29T02:53:00.902Z,19.50
2022-11-29T02:56:04.631Z,19.40
2022-11-29T02:58:45.913Z,19.40
2022-11-29T03:01:24.484Z,19.40
2022-11-29T03:03:53.937Z,19.40
2022-11-29T03:06:38.693Z,19.40
2022-11-29T03:09:20.157Z,19.40
2022-11-29T03:12:08.332Z,19.40
2022-11-29T03:14:49.924Z,19.40
2022-11-29T03:17:49.167Z,19.40
2022-11-29T03:20:50.727Z,19.40
2022-11-29T03:23:48.587Z,19.40
2022-11-29T03:26:57.933Z,19.40
2022-11-29T03:29:35.143Z,19.40
2022-11-29T03:32:12.441Z,19.40
2022-11-29T03:35:06.742Z,19.40
2022-11-29T03:37:46.473Z,19.40
2022-11-29T03:40:29.679Z,19.40
2022-11-29T03:43:16.772Z,19.40
2022-11-29T03:45:50.946Z,19.40
2022-11-29T03:48:43.662Z,19.40
2022-11-29T03:51:16.337Z,19.40
2022-11-29T03:53:59.862Z,19.40
2022-11-29T03:56:34.055Z,19.30
2022-11-29T03:59:38.019Z,19.40
2022-11-29T04:02:10.773Z,19.30
2022-11-29T04:05:00.601Z,19.30
2022-11-29T04:08:12.472Z,19.40
2022-11-29T04:11:21.241Z,19.40
2022-11-29T04:14:24.709Z,19.40
2022-11-29T04:17:22.926Z,19.40
2022-11-29T04:19:58.604Z,19.40
2022-11-29T04:22:40.624Z,19.40
2022-11-29T04:25:36.152Z,19.40
2022-11-29T04:28:19.624Z,19.40
2022-11-29T04:31:22.025Z,19.40
2022-11-29T04:34:07.292Z,19.40
2022-11-29T04:37:03.824Z,19.40
2022-11-29T04:40:07.673Z,19.40
2022-11-29T04:42:43.849Z,19.50
2022-11-29T04:45:32.351Z,19.40
2022-11-29T04:48:25.743Z,19.40
2022-11-29T04:51:10.734Z,19.40
2022-11-29T04:54:00.049Z,19.50
2022-11-29T04:56:36.109Z,19.50
2022-11-29T04:59:11.682Z,19.50
2022-11-29T05:02:15.617Z,19.50
2022-11-29T05:05:01.106Z,19.50
2022-11-29T05:08:06.472Z,19.50
2022-11-29T05:11:12.121Z,19.50
2022-11-29T05:14:00.225Z,19.50
2022-11-29T05:16:35.980Z,19.50
2022-11-29T05:19:25.281Z,19.50
2022-11-29T05:22:22.534Z,19.60
2022-11-29T05:24:55.272Z,19.60
2022-11-29T05:27:49.287Z,19.60
2022-11-29T05:30:23.785Z,19.60
2022-11-29T05:32:57.153Z,19.60
2022-11-29T05:35:43.953Z,19.60
2022-11-29T05:38:42.711Z,19.60
2022-11-29T05:41:18.155Z,19.60
2022-11-29T05:43:45.059Z,19.60
2022-11-29T05:46:29.386Z,19.70
2022-11-29T05:49:19.285Z,19.60
2022-11-29T05:52:19.693Z,19.70
2022-11-29T05:55:05.895Z,19.70
2022-11-29T05:57:57.852Z,19.70
2022-11-29T06:00:29.492Z,19.70
2022-11-29T06:03:25.060Z,19.70
2022-11-29T06:05:57.416Z,19.70
2022-11-29T06:08:59.037Z,19.70
2022-11-29T06:11:44.252Z,19.70
2022-11-29T06:14:17.002Z,19.80
2022-11-29T06:17:13.595Z,19.70
2022-11-29T06:20:19.299Z,19.70
2022-11-29T06:23:04.027Z,19.80
2022-11-29T06:25:47.496Z,19.80
2022-11-29T06:28:20.959Z,19.80
2022-11-29T06:31:23.874Z,19.80
2022-11-29T06:34:11.891Z,19.80
2022-11-29T06:36:48.337Z,19.80
2022-11-29T06:39:15.897Z,19.80
2022-11-29T06:41:42.917Z,19.80
2022-11-29T06:44:11.305Z,19.80
2022-11-29T06:46:46.046Z,19.80
2022-11-29T06:49:30.881Z,19.80
2022-11-29T06:52:35.613Z,19.80
2022-11-29T06:55:26.561Z,19.80
2022-11-29T06:58:02.907Z,19.80
2022-11-29T07:00:40.875Z,19.90
2022-11-29T07:03:27.903Z,19.80
2022-11-29T07:05:55.239Z,19.80
2022-11-29T07:08:23.817Z,19.80
2022-11-29T07:10:54.215Z,19.90
2022-11-29T07:13:22.071Z,19.90
2022-11-29T07:16:07.396Z,19.80
2022-11-29T07:18:50.096Z,19.80
2022-11-29T07:21:41.035Z,19.90
2022-11-29T07:24:33.547Z,19.90
2022-11-29T07:27:09.422Z,19.90
2022-11-29T07:29:54.702Z,19.90
2022-11-29T07:32:29.267Z,19.90
2022-11-29T07:35:03.668Z,19.90
2022-11-29T07:37:40.099Z,19.90
2022-11-29T07:40:44.626Z,19.90
2022-11-29T07:43:14.315Z,19.90
2022-11-29T07:45:41.480Z,19.90
2022-11-29T07:48:13.655Z,19.90
2022-11-29T07:50:41.228Z,19.90
2022-11-29T07:53:17.099Z,19.90
2022-11-29T07:55:44.972Z,19.90
2022-11-29T07:58:13.333Z,19.90
2022-11-29T08:00:42.293Z,19.90
2022-11-29T08:03:10.889Z,19.90
2022-11-29T08:05:38.843Z,19.90
2022-11-29T08:08:06.423Z,19.90
2022-11-29T08:10:34.287Z,19.90
2022-11-29T08:13:01.223Z,19.90
2022-11-29T08:15:28.733Z,19.90
2022-11-29T08:17:55.597Z,19.90
2022-11-29T08:20:22.585Z,19.90
2022-11-29T08:22:57.624Z,19.90
2022-11-29T08:25:26.046Z,19.90
2022-11-29T08:27:54.548Z,19.90
2022-11-29T08:30:24.537Z,19.90
2022-11-29T08:32:52.165Z,19.90
2022-11-29T08:35:21.674Z,19.90
2022-11-29T08:37:48.929Z,19.90
2022-11-29T08:40:16.930Z,19.90
2022-11-29T08:42:43.839Z,19.90
2022-11-29T08:45:11.881Z,19.90
2022-11-29T08:47:41.147Z,19.90
2022-11-29T08:50:16.341Z,19.90
2022-11-29T08:53:06.780Z,19.90
2022-11-29T08:55:36.877Z,19.90
2022-11-29T08:58:15.185Z,19.90
2022-11-29T09:00:45.645Z,19.90
2022-11-29T09:03:31.855Z,19.90
2022-11-29T09:06:07.657Z,19.90
2022-11-29T09:08:39.429Z,19.90
2022-11-29T09:11:26.754Z,19.90
2022-11-29T09:13:56.531Z,19.90
2022-11-29T09:16:26.714Z,19.80
2022-11-29T09:18:55.982Z,19.90
2022-11-29T09:21:25.844Z,19.80
2022-11-29T09:23:59.688Z,19.90
2022-11-29T09:26:31.717Z,19.90
2022-11-29T09:29:01.311Z,19.80
2022-11-29T09:31:29.787Z,19.80
2022-11-29T09:33:57.332Z,19.90
2022-11-29T09:36:28.377Z,19.80
2022-11-29T09:38:57.052Z,19.80
2022-11-29T09:41:48.204Z,19.80
2022-11-29T09:44:24.947Z,19.80
2022-11-29T09:46:57.177Z,19.80
2022-11-29T09:49:52.801Z,19.80
2022-11-29T09:52:47.837Z,19.80
2022-11-29T09:55:37.424Z,19.80
2022-11-29T09:58:09.905Z,19.80
2022-11-29T10:00:53.088Z,19.80
2022-11-29T10:03:34.631Z,19.80
2022-11-29T10:06:38.708Z,19.80
2022-11-29T10:09:33.532Z,19.80
2022-11-29T10:12:18.280Z,19.80
2022-11-29T10:15:14.068Z,19.80
2022-11-29T10:17:59.260Z,19.80
2022-11-29T10:20:41.435Z,19.80
2022-11-29T10:23:24.268Z,19.80
2022-11-29T10:25:56.458Z,19.80
2022-11-29T10:28:31.180Z,19.80
2022-11-29T10:31:21.795Z,19.80
2022-11-29T10:33:50.122Z,19.80
2022-11-29T10:36:41.446Z,19.80
2022-11-29T10:39:33.544Z,19.80
2022-11-29T10:42:02.526Z,19.80
2022-11-29T10:44:31.980Z,19.80
2022-11-29T10:47:03.563Z,19.80
2022-11-29T10:49:35.225Z,19.80
2022-11-29T10:52:02.034Z,19.80
2022-11-29T10:54:36.991Z,19.80
2022-11-29T10:57:13.930Z,19.80
2022-11-29T10:59:40.763Z,19.80
2022-11-29T11:02:21.240Z,19.80
2022-11-29T11:04:48.332Z,19.80
2022-11-29T11:07:28.870Z,19.70
2022-11-29T11:09:57.931Z,19.80
2022-11-29T11:12:30.297Z,19.80
2022-11-29T11:15:31.545Z,19.70
2022-11-29T11:18:04.997Z,19.70
2022-11-29T11:20:42.457Z,19.70
2022-11-29T11:23:37.427Z,19.70
2022-11-29T11:26:12.834Z,19.70
2022-11-29T11:28:52.108Z,19.70
2022-11-29T11:31:27.027Z,19.70
2022-11-29T11:33:53.851Z,19.70
2022-11-29T11:36:20.563Z,19.70
2022-11-29T11:38:50.284Z,19.70
2022-11-29T11:41:45.011Z,19.70
2022-11-29T11:44:46.393Z,19.70
2022-11-29T11:47:28.577Z,19.70
2022-11-29T11:50:04.187Z,19.70
2022-11-29T11:52:42.052Z,19.70
2022-11-29T11:55:30.323Z,19.70
2022-11-29T11:58:16.210Z,19.70
2022-11-29T12:01:07.594Z,19.70
2022-11-29T12:03:46.395Z,19.70
2022-11-29T12:06:19.632Z,19.60
2022-11-29T12:08:49.027Z,19.60
2022-11-29T12:11:18.350Z,19.60
2022-11-29T12:14:07.121Z,19.60
2022-11-29T12:16:38.967Z,19.60
2022-11-29T12:19:17.106Z,19.60
2022-11-29T12:21:48.361Z,19.60
2022-11-29T12:24:28.256Z,19.60
2022-11-29T12:26:59.192Z,19.60
2022-11-29T12:29:29.845Z,19.60
2022-11-29T12:32:24.741Z,19.60
2022-11-29T12:35:07.208Z,19.60
2022-11-29T12:37:51.795Z,19.60
2022-11-29T12:40:31.882Z,19.60
2022-11-29T12:43:15.700Z,19.60
2022-11-29T12:45:52.508Z,19.60
2022-11-29T12:48:31.057Z,19.60
2022-11-29T12:50:57.821Z,19.50
2022-11-29T12:53:30.056Z,19.60
2022-11-29T12:56:18.893Z,19.50
2022-11-29T12:58:54.193Z,19.50
2022-11-29T13:01:35.888Z,19.50
2022-11-29T13:04:08.555Z,19.50
2022-11-29T13:07:06.011Z,19.50
2022-11-29T13:09:44.753Z,19.50
2022-11-29T13:12:24.669Z,19.50
2022-11-29T13:15:00.550Z,19.50
2022-11-29T13:18:00.875Z,19.50
2022-11-29T13:20:54.774Z,19.50
2022-11-29T13:24:09.359Z,19.50
2022-11-29T13:26:40.533Z,19.50
2022-11-29T13:29:13.313Z,19.50
2022-11-29T13:31:40.809Z,19.50
2022-11-29T13:34:16.629Z,19.50
2022-11-29T13:37:03.121Z,19.50
2022-11-29T13:39:52.127Z,19.50
2022-11-29T13:42:28.533Z,19.50
2022-11-29T13:45:27.136Z,19.50
2022-11-29T13:48:00.084Z,19.40
2022-11-29T13:50:39.237Z,19.50
2022-11-29T13:53:25.848Z,19.50
2022-11-29T13:56:01.416Z,19.40
2022-11-29T13:58:28.237Z,19.50
2022-11-29T14:01:05.652Z,19.40
2022-11-29T14:03:38.748Z,19.40
2022-11-29T14:06:31.604Z,19.40
2022-11-29T14:09:21.713Z,19.40
2022-11-29T14:12:05.852Z,19.40
2022-11-29T14:14:40.606Z,19.40
2022-11-29T14:17:34.095Z,19.40
2022-11-29T14:20:28.684Z,19.40
2022-11-29T14:23:04.323Z,19.40
2022-11-29T14:25:51.092Z,19.40
2022-11-29T14:28:21.670Z,19.40
2022-11-29T14:30:48.499Z,19.40
2022-11-29T14:33:27.014Z,19.40
2022-11-29T14:36:19.960Z,19.40
2022-11-29T14:39:24.273Z,19.40
2022-11-29T14:41:51.050Z,19.40
2022-11-29T14:44:28.063Z,19.40
2022-11-29T14:47:16.328Z,19.40
2022-11-29T14:49:45.115Z,19.40
2022-11-29T14:52:15.142Z,19.30
2022-11-29T14:54:59.388Z,19.40
2022-11-29T14:57:44.922Z,19.40
2022-11-29T15:00:12.720Z,19.40
2022-11-29T15:03:23.121Z,19.30
2022-11-29T15:06:01.072Z,19.30
2022-11-29T15:08:42.635Z,19.30
2022-11-29T15:11:22.303Z,19.30
2022-11-29T15:14:01.597Z,19.30
2022-11-29T15:16:37.011Z,19.30
2022-11-29T15:19:22.545Z,19.30
2022-11-29T15:22:28.566Z,19.30
2022-11-29T15:25:00.720Z,19.30
2022-11-29T15:27:28.760Z,19.30
2022-11-29T15:29:55.686Z,19.30
2022-11-29T15:32:30.452Z,19.30
2022-11-29T15:34:57.670Z,19.30
2022-11-29T15:37:38.719Z,19.30
2022-11-29T15:40:14.832Z,19.30
2022-11-29T15:43:09.734Z,19.30
2022-11-29T15:45:39.223Z,19.30
2022-11-29T15:48:22.275Z,19.20
2022-11-29T15:51:26.043Z,19.20
2022-11-29T15:54:12.312Z,19.30
2022-11-29T15:56:53.857Z,19.30
2022-11-29T15:59:35.396Z,19.30
2022-11-29T16:02:30.717Z,19.20
2022-11-29T16:05:03.175Z,19.30
2022-11-29T16:07:34.450Z,19.30
2022-11-29T16:10:11.946Z,19.20
2022-11-29T16:12:51.439Z,19.20
2022-11-29T16:15:33.087Z,19.30
2022-11-29T16:18:23.588Z,19.30
2022-11-29T16:21:01.220Z,19.20
2022-11-29T16:23:36.299Z,19.20
2022-11-29T16:26:14.941Z,19.20
2022-11-29T16:28:49.588Z,19.30
2022-11-29T16:31:22.147Z,19.20
2022-11-29T16:33:51.125Z,19.20
2022-11-29T16:36:24.599Z,19.20
2022-11-29T16:39:01.564Z,19.20
2022-11-29T16:41:32.823Z,19.20
2022-11-29T16:44:03.233Z,19.30
2022-11-29T16:46:38.825Z,19.20
2022-11-29T16:52:49.752Z,19.30
2022-11-29T16:55:19.172Z,19.30
2022-11-29T16:57:47.322Z,19.30
2022-11-29T17:00:32.620Z,19.30
2022-11-29T17:02:59.984Z,19.20
2022-11-29T17:05:27.365Z,19.30
2022-11-29T17:07:54.693Z,19.30
2022-11-29T17:10:24.475Z,19.30
2022-11-29T17:12:51.344Z,19.30
2022-11-29T17:15:18.589Z,19.30
2022-11-29T17:17:45.403Z,19.30
2022-11-29T17:20:13.341Z,19.30
2022-11-29T17:22:41.170Z,19.30
2022-11-29T17:25:09.045Z,19.30
2022-11-29T17:27:36.254Z,19.30
2022-11-29T17:30:04.102Z,19.30
2022-11-29T17:32:30.891Z,19.30
2022-11-29T17:34:57.669Z,19.40
2022-11-29T17:37:24.479Z,19.30
2022-11-29T17:39:51.386Z,19.40
2022-11-29T17:42:18.293Z,19.40
2022-11-29T17:44:45.045Z,19.40
2022-11-29T17:47:11.781Z,19.40
2022-11-29T17:49:38.579Z,19.50
2022-11-29T17:52:05.735Z,19.40
2022-11-29T17:54:33.175Z,19.40
2022-11-29T17:57:01.132Z,19.50
2022-11-29T17:59:28.019Z,19.50
2022-11-29T18:01:54.924Z,19.50
2022-11-29T18:04:21.953Z,19.50
2022-11-29T18:06:51.784Z,19.50
2022-11-29T18:09:19.686Z,19.50
2022-11-29T18:11:49.477Z,19.60
2022-11-29T18:14:23.503Z,19.60
2022-11-29T18:16:51.657Z,19.60
2022-11-29T18:19:20.905Z,19.60
2022-11-29T18:21:49.044Z,19.60
2022-11-29T18:24:16.259Z,19.60
2022-11-29T18:26:43.599Z,19.60
2022-11-29T18:29:10.457Z,19.60
2022-11-29T18:31:40.081Z,19.60
2022-11-29T18:34:11.651Z,19.60
2022-11-29T18:36:47.183Z,19.70
2022-11-29T18:39:19.577Z,19.70
2022-11-29T18:41:50.506Z,19.70
2022-11-29T18:44:20.331Z,19.70
2022-11-29T18:46:48.020Z,19.70
2022-11-29T18:49:17.041Z,19.70
2022-11-29T18:51:45.677Z,19.70
2022-11-29T18:54:14.128Z,19.70
2022-11-29T18:56:41.886Z,19.70
2022-11-29T18:59:10.946Z,19.70
2022-11-29T19:01:42.854Z,19.70
2022-11-29T19:04:15.681Z,19.70
2022-11-29T19:06:43.071Z,19.70
2022-11-29T19:09:20.873Z,19.70
2022-11-29T19:11:50.866Z,19.70
2022-11-29T19:14:18.331Z,19.70
2022-11-29T19:16:47.210Z,19.70
2022-11-29T19:19:14.080Z,19.70
2022-11-29T19:21:41.537Z,19.70
2022-11-29T19:24:14.181Z,19.70
2022-11-29T19:26:44.492Z,19.80
2022-11-29T19:29:12.797Z,19.80
2022-11-29T19:31:39.706Z,19.80
2022-11-29T19:34:06.780Z,19.80
2022-11-29T19:36:33.845Z,19.80
2022-11-29T19:39:01.820Z,19.80
2022-11-29T19:41:31.406Z,19.80
2022-11-29T19:44:00.853Z,19.70
2022-11-29T19:46:33.031Z,19.70
2022-11-29T19:49:01.063Z,19.80
2022-11-29T19:51:29.535Z,19.70
2022-11-29T19:53:59.307Z,19.80
2022-11-29T19:56:26.587Z,19.70
2022-11-29T19:58:54.294Z,19.70
2022-11-29T20:01:25.011Z,19.70
2022-11-29T20:03:52.859Z,19.70
2022-11-29T20:06:20.264Z,19.70
2022-11-29T20:08:47.995Z,19.80
2022-11-29T20:11:21.810Z,19.80
2022-11-29T20:13:55.817Z,19.80
2022-11-29T20:16:23.496Z,19.80
2022-11-29T20:18:51.759Z,19.80
2022-11-29T20:21:24.414Z,19.80
2022-11-29T20:24:05.299Z,19.80
2022-11-29T20:26:35.200Z,19.80
2022-11-29T20:29:02.777Z,19.80
2022-11-29T20:31:30.115Z,19.80
2022-11-29T20:33:57.600Z,19.80
2022-11-29T20:36:55.648Z,19.80
2022-11-29T20:39:29.025Z,19.80
2022-11-29T20:42:14.571Z,19.80
2022-11-29T20:44:50.420Z,19.80
2022-11-29T20:47:20.930Z,19.70
2022-11-29T20:49:48.447Z,19.80
2022-11-29T20:52:41.812Z,19.70
2022-11-29T20:55:09.029Z,19.80
2022-11-29T20:57:38.350Z,19.80
2022-11-29T21:00:11.711Z,19.70
2022-11-29T21:02:39.156Z,19.80
2022-11-29T21:05:06.782Z,19.80
2022-11-29T21:07:34.286Z,19.80
2022-11-29T21:10:01.917Z,19.80
2022-11-29T21:12:30.230Z,19.80
2022-11-29T21:14:58.152Z,19.80
2022-11-29T21:17:30.265Z,19.80
2022-11-29T21:20:00.210Z,19.80
2022-11-29T21:23:03.027Z,19.80
2022-11-29T21:25:41.989Z,19.80
2022-11-29T21:28:12.439Z,19.80
2022-11-29T21:30:40.033Z,19.80
2022-11-29T21:33:07.720Z,19.80
2022-11-29T21:35:34.757Z,19.80
2022-11-29T21:38:02.325Z,19.80
2022-11-29T21:40:29.200Z,19.80
2022-11-29T21:42:56.322Z,19.80
2022-11-29T21:45:23.136Z,19.80
2022-11-29T21:47:49.934Z,19.80
2022-11-29T21:50:16.935Z,19.80
2022-11-29T21:52:44.479Z,19.80
2022-11-29T21:55:11.364Z,19.70
2022-11-29T21:57:38.892Z,19.70
2022-11-29T22:00:07.785Z,19.70
2022-11-29T22:02:34.702Z,19.70
2022-11-29T22:05:01.702Z,19.70
2022-11-29T22:07:28.656Z,19.70
2022-11-29T22:09:55.490Z,19.70
2022-11-29T22:12:37.506Z,19.70
2022-11-29T22:15:04.752Z,19.70
2022-11-29T22:17:31.534Z,19.60
2022-11-29T22:19:58.351Z,19.60
2022-11-29T22:22:28.101Z,19.60
2022-11-29T22:24:55.384Z,19.60
2022-11-29T22:27:22.196Z,19.60
2022-11-29T22:29:49.058Z,19.60
2022-11-29T22:32:15.854Z,19.60
2022-11-29T22:34:42.614Z,19.60
2022-11-29T22:37:09.540Z,19.60
2022-11-29T22:39:36.330Z,19.60
2022-11-29T22:42:03.287Z,19.60
2022-11-29T22:44:30.814Z,19.60
2022-11-29T22:46:57.568Z,19.50
2022-11-29T22:49:24.456Z,19.60
2022-11-29T22:51:52.293Z,19.60
2022-11-29T22:54:20.323Z,19.50
2022-11-29T22:56:47.542Z,19.50
2022-11-29T22:59:14.566Z,19.50
2022-11-29T23:01:42.398Z,19.50
2022-11-29T23:04:11.485Z,19.50
2022-11-29T23:06:45.855Z,19.50
2022-11-29T23:09:17.090Z,19.50
2022-11-29T23:11:45.537Z,19.50
2022-11-29T23:14:13.028Z,19.50
2022-11-29T23:16:39.920Z,19.50
2022-11-29T23:19:06.892Z,19.50
2022-11-29T23:21:36.931Z,19.50
2022-11-29T23:24:03.974Z,19.50
2022-11-29T23:26:38.872Z,19.50
2022-11-29T23:29:08.130Z,19.50
2022-11-29T23:31:34.936Z,19.50
2022-11-29T23:34:02.876Z,19.50
2022-11-29T23:36:29.863Z,19.50
2022-11-29T23:38:56.662Z,19.50
2022-11-29T23:41:23.458Z,19.40
2022-11-29T23:43:50.202Z,19.50
2022-11-29T23:46:20.244Z,19.40
2022-11-29T23:52:51.315Z,19.40
2022-11-29T23:55:19.877Z,19.50
2022-11-29T23:57:46.883Z,19.40
